x

East Hatteras - 150 Nm East Of Cape Hatteras (41001) Weather Station

12:20 - Mon 26th Jun 2017 All times are EDT. -4 hours from GMT.

  • Wind
    16mph, 22mph gusts
  • Sea Temp 79°f
  • Luft Temp 79°f
  • Sea Pressure 1018mb
  • East Hatteras - 150 Nm East Of Cape Hatteras
  • East Hatteras - 150 Nm East Of Cape Hatteras

More Historic Weather Station data

Upgrade to MSW Pro to gain access to the past 30 days of data for over 8000 Wavebouys and Weather Stations around the globe.

Join Pro

Comparision Forecast

View Surf forecast
   
Mo 06/26 12:20  -   -   -  16 22 mph 1018mb 79f 79f
12:10  -   -   -  18 22 mph 1018mb 79f 79f
12:00  -   -   -  16 22 mph 1018.1mb 79f 79f
So 06/25 11:50 5.5ft 7s 6s 18 22 mph 1018.1mb 79f 79f
11:40 5.5ft  -  6s 18 20 mph 1018.1mb 79f 79f
11:30  -   -   -  18 22 mph 1018.4mb 79f 79f
11:20  -   -   -  16 22 mph 1018.5mb 79f 79f
11:10  -   -   -  13 18 mph 1018.6mb 79f 79f
11:00  -   -   -  13 16 mph 1018.6mb 79f 79f
10:50 6ft 7s 6s 13 18 mph 1018.6mb 79f 79f
10:40 6ft  -  6s 13 18 mph 1018.8mb 79f 79f
10:30  -   -   -  13 16 mph 1018.8mb 79f 78f
10:20  -   -   -  13 18 mph 1018.8mb 79f 78f
10:10  -   -   -  11 13 mph 1018.5mb 79f 78f
10:00  -   -   -  13 18 mph 1018.5mb 79f 77f
9:50 5.5ft 7s 6s 13 20 mph 1018.5mb 79f 77f
9:40  -   -   -  16 22 mph 1018.6mb 79f 78f
9:30  -   -   -  13 16 mph 1018.6mb 79f 79f
9:20  -   -   -  11 16 mph 1018.5mb 79f 79f
9:10  -   -   -  11 16 mph 1018.4mb 79f 79f
9:00  -   -   -  11 16 mph 1018.4mb 79f 79f
8:50 6ft 7s 6s 11 16 mph 1018.4mb 79f 79f
8:40 6ft  -  6s 11 16 mph 1018.4mb 79f 78f
8:30  -   -   -  11 16 mph 1018.5mb 79f 78f
8:20  -   -   -  11 13 mph 1018.3mb 79f 78f
8:10  -   -   -  11 16 mph 1018.3mb 79f 78f
8:00  -   -   -  11 16 mph 1018.3mb 79f 78f
7:50 6ft 7s 6s 13 16 mph 1018.1mb 79f 78f
7:40  -   -   -  13 18 mph 1018.1mb 79f 78f
7:30  -   -   -  13 16 mph 1018.5mb 79f 78f
7:20  -   -   -  13 18 mph 1018.4mb 79f 78f
7:10  -   -   -  13 18 mph 1018.1mb 79f 78f
7:00  -   -   -  13 16 mph 1018mb - 78f
6:50 6ft 7s 6s 13 16 mph 1018mb 79f 78f
6:40 6ft  -  6s 11 16 mph 1017.6mb 79f 78f
6:30  -   -   -  11 16 mph 1017.5mb 79f 77f
6:20  -   -   -  13 18 mph 1017.6mb 79f 77f
6:10  -   -   -  13 18 mph 1017.6mb 79f 77f
6:00  -   -   -  16 20 mph 1018mb 79f 76f
5:50 6ft 7s 6s 20 25 mph 1018mb 79f 77f
5:40  -   -   -  18 22 mph 1018.1mb 79f 76f
5:30  -   -   -  16 20 mph 1018.4mb 79f 76f
5:20  -   -   -  18 45 mph 1018.5mb 79f 77f
5:10  -   -   -  16 20 mph 1018.1mb 79f 79f
5:00  -   -   -  18 25 mph 1018.3mb 79f 79f
4:50 6ft 7s 6s 18 22 mph 1018.3mb 79f 78f
4:40 6ft  -  6s 20 25 mph 1018.3mb 79f 77f
4:30  -   -   -  20 25 mph 1018.1mb 79f 77f
4:20  -   -   -  16 22 mph 1018mb 79f 78f
4:10  -   -   -  20 27 mph 1017.9mb 79f 78f
4:00  -   -   -  20 25 mph 1018mb 79f 78f
3:50 6.5ft 7s 6s 20 25 mph 1018mb 79f 78f
3:40  -   -   -  20 25 mph 1018.1mb 79f 78f
3:30  -   -   -  18 27 mph 1018mb 79f 78f
3:20  -   -   -  20 31 mph 1018.1mb 79f 77f
3:10  -   -   -  16 20 mph 1018.3mb 79f 77f
3:00  -   -   -  18 25 mph 1018.4mb 79f 77f
2:50 6ft 7s 5s 20 25 mph 1018.5mb 79f 79f
2:40  -   -   -  18 22 mph 1018.5mb 79f 80f
2:30  -   -   -  20 25 mph 1018.4mb 79f 80f
2:20  -   -   -  18 25 mph 1018.3mb 79f 80f
2:10  -   -   -  18 22 mph 1018.4mb 79f 80f
2:00  -   -   -  18 22 mph 1018.4mb 79f 80f
1:50 7ft 7s 6s 18 22 mph 1018.5mb 79f 80f
1:40  -   -   -  16 22 mph 1018.4mb 79f 80f
1:30  -   -   -  11 16 mph 1018.5mb 79f 78f
1:20  -   -   -  13 20 mph 1018.6mb 79f 77f
1:10  -   -   -  20 27 mph 1018.8mb 79f 77f
1:00  -   -   -  18 22 mph 1018.8mb 79f 76f
12:50 7ft 7s 5s 22 29 mph 1018.8mb 79f 77f
12:40  -   -   -  20 25 mph 1018.6mb 79f 77f
12:30  -   -   -  18 22 mph 1018.8mb 79f 77f
12:20  -   -   -  18 22 mph 1018.8mb 79f 77f
12:10  -   -   -  18 25 mph 1018.8mb 79f 77f
12:00  -   -   -  20 29 mph 1018.8mb 79f 77f
11:50 6.5ft 7s 5s 22 29 mph 1018.9mb 79f 77f
11:40  -   -   -  20 34 mph 1019mb 79f 78f
11:30  -   -   -  20 27 mph 1019mb 79f 80f
11:20  -   -   -  20 29 mph 1018.8mb 79f 80f
11:10  -   -   -  20 27 mph 1018.8mb 79f 80f
11:00  -   -   -  20 25 mph 1018.5mb 79f 80f
10:50 7ft 7s 6s 20 27 mph 1018.1mb 79f 80f
10:40  -   -   -  22 27 mph 1018.6mb 79f 80f
10:30  -   -   -  20 27 mph 1018.5mb 79f 80f
10:20  -   -   -  20 25 mph 1018.5mb - 80f
10:10  -   -   -  20 27 mph 1018.5mb 79f 80f
10:00  -   -   -  20 25 mph 1018.5mb 79f 80f
9:50 6.5ft 7s 6s 20 25 mph 1018.5mb 79f 80f
9:40  -   -   -  18 25 mph 1018.5mb 79f 80f
9:30  -   -   -  18 22 mph 1018.5mb 79f 80f
9:20  -   -   -  20 25 mph 1018.5mb 79f 80f
9:10  -   -   -  18 25 mph 1018.5mb 79f 80f
9:00  -   -   -  20 25 mph 1018.5mb 79f 80f
8:50 6ft 7s 6s 20 25 mph 1018.5mb 79f 80f
8:40  -   -   -  20 25 mph 1018.4mb 79f 80f
8:30  -   -   -  20 25 mph 1018.1mb 79f 80f
8:20  -   -   -  20 25 mph 1018.1mb 79f 80f
8:10  -   -   -  20 25 mph 1018.1mb 78f 80f
8:00  -   -   -  18 25 mph 1018.3mb 79f 80f
7:50 6ft 7s 5s 20 25 mph 1018.3mb 79f 80f
7:40  -   -   -  18 22 mph 1018.3mb 79f 80f
7:30  -   -   -  18 22 mph 1018.3mb 79f 80f
7:20  -   -   -  18 22 mph 1018.3mb 79f 79f
7:10  -   -   -  18 22 mph 1018.1mb 79f 79f
7:00  -   -   -  18 22 mph 1018.3mb 79f 79f
6:50 7ft 7s 6s 20 25 mph 1018.3mb 79f 79f
6:40  -   -   -  18 25 mph 1018mb 79f 79f
6:30  -   -   -  18 22 mph 1018.1mb 79f 79f
6:20  -   -   -  20 25 mph 1018mb 79f 79f
6:10  -   -   -  20 25 mph 1018mb 79f 79f
6:00  -   -   -  20 25 mph 1018mb 79f 79f
5:50 7ft 7s 6s 18 25 mph 1017.9mb 79f 79f
5:40  -   -   -  18 25 mph 1017.6mb 79f 79f
5:30  -   -   -  20 25 mph 1017.6mb 78f 79f
5:20  -   -   -  20 27 mph 1017.8mb 78f 79f
5:10  -   -   -  18 22 mph 1017.9mb 78f 79f
5:00  -   -   -  18 25 mph 1017.6mb 78f 79f
4:50 7ft 7s 6s 18 25 mph 1017.5mb 78f 79f
4:40 7ft  -  6s 18 22 mph 1017.6mb 78f 79f
4:30  -   -   -  20 25 mph 1017.6mb 78f 79f
4:20  -   -   -  18 22 mph 1017.6mb 78f 79f
4:10  -   -   -  18 22 mph 1017.6mb 78f 79f
4:00  -   -   -  18 22 mph 1017.6mb 79f 79f
3:50 6.5ft 8s 6s 18 22 mph 1017.6mb 79f 79f
3:40 6.5ft  -  6s 18 22 mph 1017.6mb 79f 79f
3:30  -   -   -  18 25 mph 1017.9mb 79f 79f
3:20  -   -   -  18 25 mph 1017.6mb 79f 79f
3:10  -   -   -  20 25 mph 1017.6mb 79f 79f
3:00  -   -   -  20 25 mph 1017.6mb 79f 79f
2:50 7ft 8s 6s 20 25 mph 1017.8mb 79f 79f
2:40 7ft  -  6s 20 25 mph 1017.6mb 79f 79f
2:30  -   -   -  20 27 mph 1017.9mb 79f 79f
2:20  -   -   -  20 25 mph 1018mb 79f 79f
2:10  -   -   -  20 25 mph 1018mb 79f 79f
2:00  -   -   -  20 27 mph 1018.1mb 79f 79f
1:50 7.5ft 8s 6s 20 25 mph 1018.1mb 79f 79f
1:40  -   -   -  20 25 mph 1018.1mb 79f 79f
1:30  -   -   -  20 25 mph 1018mb 79f 79f
1:20  -   -   -  20 25 mph 1018mb 79f 79f
1:10  -   -   -  18 25 mph 1018mb 79f 79f
1:00  -   -   -  20 25 mph 1018.1mb 79f 79f
12:50 7ft 8s 6s 20 25 mph 1018.4mb 79f 79f
12:40 7ft  -  6s 20 25 mph 1018.5mb 79f 79f
12:30  -   -   -  20 25 mph 1018.4mb 79f 79f
12:20  -   -   -  20 25 mph 1018.4mb 79f 80f
12:10  -   -   -  18 25 mph 1018.5mb 79f 80f
12:00  -   -   -  18 25 mph 1018.5mb 79f 80f
Sa 06/24 11:50 7ft 8s 6s 18 25 mph 1018.5mb 79f 80f
11:40 7ft  -  6s 18 25 mph 1018.5mb 79f 80f
11:30  -   -   -  18 25 mph 1018.5mb 79f 80f
11:20  -   -   -  18 25 mph 1018.5mb 79f 80f
11:10  -   -   -  20 27 mph 1018.4mb 79f 80f
11:00  -   -   -  22 27 mph 1018.5mb 79f 80f
10:50 8ft 8s 6s 22 27 mph 1018.6mb 79f 80f
10:40 8ft  -  6s 20 27 mph 1018.5mb 79f 80f
10:30  -   -   -  22 27 mph 1018.5mb 79f 80f
10:20  -   -   -  22 27 mph 1018.5mb 79f 80f
10:10  -   -   -  22 29 mph 1018.5mb 79f 80f
10:00  -   -   -  20 25 mph 1018.5mb 79f 80f
9:50 7ft 8s 6s 20 27 mph 1018.1mb 79f 80f
9:40  -   -   -  20 27 mph 1018.1mb 79f 80f
9:30  -   -   -  20 27 mph 1018mb 79f 80f
9:20  -   -   -  22 25 mph 1018mb 79f 80f
9:10  -   -   -  20 25 mph 1017.9mb 79f 80f
9:00  -   -   -  20 25 mph 1017.6mb 79f 80f
8:50 7.5ft  -  6s 22 29 mph 1017mb 79f 80f
8:40  -   -   -  22 27 mph 1017.4mb 79f 80f
8:30  -   -   -  22 27 mph 1017.1mb 79f 80f
8:20  -   -   -  20 27 mph 1017.1mb 79f 80f
8:10  -   -   -  20 25 mph 1017mb 79f 80f
8:00  -   -   -  20 25 mph 1016.9mb 79f 80f
7:50 8ft 7s 6s 20 25 mph 1016.9mb 79f 80f
7:40  -   -   -  20 25 mph 1016.6mb 79f 80f
7:30  -   -   -  20 25 mph 1016.6mb 79f 80f
7:20  -   -   -  20 25 mph 1016.5mb 79f 80f
7:10  -   -   -  22 27 mph 1016.5mb 79f 80f
7:00  -   -   -  20 27 mph 1016.6mb 79f 80f
6:50 8ft 8s 6s 20 27 mph 1016.6mb 79f 80f
6:40 8ft  -  6s 20 25 mph 1016.8mb 79f 80f
6:30  -   -   -  20 25 mph 1016.5mb 79f 80f
6:20  -   -   -  22 27 mph 1016.8mb 79f 80f
6:10  -   -   -  22 27 mph 1016.6mb 79f 80f
6:00  -   -   -  22 27 mph 1016.5mb 79f 80f
5:50 8ft 8s 6s 22 29 mph 1016.4mb 79f 80f
5:40  -   -   -  22 29 mph 1016.4mb 79f 80f
5:30  -   -   -  22 29 mph 1016.1mb 79f 80f
5:20  -   -   -  22 29 mph 1016.3mb 79f 80f
5:10  -   -   -  22 29 mph 1016.3mb 79f 80f
5:00  -   -   -  22 29 mph 1016.4mb 79f 80f
4:50 8ft 7s 6s 25 29 mph 1016.5mb 79f 80f
4:40 8ft  -  6s 22 29 mph 1016.5mb 79f 80f
4:30  -   -   -  22 29 mph 1016.6mb 79f 80f
4:20  -   -   -  22 29 mph 1016.8mb 79f 80f
4:10  -   -   -  22 29 mph 1016.6mb 79f 80f
4:00  -   -   -  22 27 mph 1016.5mb 79f 80f
3:50 7.5ft 8s 6s 22 29 mph 1016.5mb 79f 80f
3:40  -   -   -  22 29 mph 1016.6mb 79f 80f
3:30  -   -   -  22 29 mph 1016.9mb 79f 80f
3:20  -   -   -  22 29 mph 1016.8mb 79f 80f
3:10  -   -   -  22 27 mph 1016.9mb 79f 80f
3:00  -   -   -  22 29 mph 1017mb 79f 80f
2:50 8ft 7s 6s 22 27 mph 1017mb 79f 80f
2:40 8ft  -  6s 22 29 mph 1017mb 79f 80f
2:30  -   -   -  22 29 mph 1017mb 79f 80f
2:20  -   -   -  22 27 mph 1017mb 79f 80f
2:10  -   -   -  22 29 mph 1017mb 79f 80f
2:00  -   -   -  22 29 mph 1017.3mb 79f 80f
1:50 7ft 7s 6s 22 27 mph 1017.1mb 79f 80f
1:40 7ft  -  6s 22 29 mph 1017.3mb 79f 80f
1:30  -   -   -  22 29 mph 1017.1mb 79f 80f
1:20  -   -   -  22 27 mph 1017.4mb - 80f
1:10  -   -   -  22 29 mph 1017.4mb 79f 80f
1:00  -   -   -  22 29 mph 1017.4mb 79f 80f
12:50 7.5ft 7s 6s 22 29 mph 1017.4mb 79f 80f
12:40 7.5ft  -  6s 22 27 mph 1017.4mb 79f 80f
12:30  -   -   -  22 27 mph 1017.5mb 79f 80f
12:20  -   -   -  22 27 mph 1017.4mb 79f 80f
12:10  -   -   -  22 27 mph 1017.5mb 79f 80f
12:00  -   -   -  22 27 mph 1017.4mb 79f 80f
11:50 7.5ft 7s 6s 20 27 mph 1017.1mb 79f 80f
11:40 7.5ft  -  6s 22 27 mph 1017.1mb 79f 80f
11:30  -   -   -  20 27 mph 1017mb 79f 80f
11:20  -   -   -  22 27 mph 1017mb 79f 80f
11:10  -   -   -  22 27 mph 1016.9mb 79f 80f
11:00  -   -   -  22 29 mph 1016.9mb 79f 80f
10:50 7.5ft 7s 6s 22 29 mph 1016.8mb 79f 80f
10:40 7.5ft  -  6s 22 27 mph 1016.6mb 79f 80f
10:30  -   -   -  22 27 mph 1016.5mb 79f 80f
10:20  -   -   -  22 29 mph 1016.6mb 79f 80f
10:10  -   -   -  22 27 mph 1016.5mb 79f 80f
10:00  -   -   -  22 27 mph 1016.5mb 79f 80f
9:50 7ft 8s 6s 22 27 mph 1016.4mb 79f 80f
9:40 7ft  -  6s 22 29 mph 1016.4mb 79f 80f
9:30  -   -   -  20 29 mph 1016.5mb 79f 80f
9:20  -   -   -  22 27 mph 1016.5mb 79f 80f
9:10  -   -   -  20 27 mph 1016.4mb 79f 80f
9:00  -   -   -  20 27 mph 1016.3mb 79f 80f
8:50 7ft 7s 6s 22 27 mph 1016mb 79f 80f
8:40  -   -   -  22 27 mph 1016.1mb 79f 80f
8:30  -   -   -  22 27 mph 1016.1mb 79f 80f
8:20  -   -   -  20 27 mph 1016.3mb 79f 80f
8:10  -   -   -  22 27 mph 1016.1mb 79f 80f
8:00  -   -   -  20 25 mph 1016.3mb 79f 80f
7:50 7ft 7s 6s 22 27 mph 1016.3mb 79f 80f
7:40 7ft  -  6s 20 25 mph 1016.3mb 79f 80f
7:30  -   -   -  20 25 mph 1016.3mb 79f 79f
7:20  -   -   -  20 27 mph 1016.3mb 79f 79f
7:10  -   -   -  20 25 mph 1016.1mb 79f 79f
7:00  -   -   -  20 25 mph 1016.1mb 79f 79f
6:50 7ft 7s 6s 20 27 mph 1016mb 79f 79f
6:40 7ft  -  6s 20 25 mph 1016.1mb 79f 79f
6:30  -   -   -  20 27 mph 1016mb 79f 79f
6:20  -   -   -  20 27 mph 1016mb 79f 79f
6:10  -   -   -  20 25 mph 1016mb 79f 79f
6:00  -   -   -  20 25 mph 1016mb 79f 79f
5:50 6ft 7s 5s 20 25 mph 1016mb 79f 79f
5:40  -   -   -  20 25 mph 1016mb 79f 79f
5:30  -   -   -  22 27 mph 1016mb 79f 79f
5:20  -   -   -  22 29 mph 1016mb 79f 79f
5:10  -   -   -  22 27 mph 1015.9mb 79f 79f
5:00  -   -   -  22 27 mph 1015.8mb 79f 79f
4:50 6ft 6s 5s 20 27 mph 1015.8mb 79f 79f
4:40 6ft  -  5s 22 27 mph 1015.6mb 79f 79f
4:30  -   -   -  22 27 mph 1015.6mb 79f 79f
4:20  -   -   -  22 29 mph 1015.5mb 79f 79f
4:10  -   -   -  22 27 mph 1015.6mb 79f 79f
4:00  -   -   -  22 29 mph 1015.6mb 79f 79f
3:50 6ft 6s 5s 22 29 mph 1015.5mb 79f 79f
3:40  -   -   -  22 29 mph 1015.5mb 79f 79f
3:30  -   -   -  22 27 mph 1015.5mb 79f 79f
3:20  -   -   -  22 29 mph 1015.6mb 79f 79f
3:10  -   -   -  22 27 mph 1015.8mb 79f 79f
3:00  -   -   -  20 27 mph 1015.8mb 79f 79f
2:50 5.5ft 6s 5s 22 27 mph 1015.9mb 79f 79f
2:40 5.5ft  -  5s 22 29 mph 1015.8mb 79f 79f
2:30  -   -   -  22 27 mph 1015.8mb 79f 79f
2:20  -   -   -  22 29 mph 1015.9mb 79f 79f
2:10  -   -   -  20 27 mph 1016mb 79f 79f
2:00  -   -   -  20 25 mph 1015.9mb 79f 79f
1:50 6ft 6s 5s 22 25 mph 1016mb 79f 79f
1:40 6ft  -  5s 22 27 mph 1016mb 79f 79f
1:30  -   -   -  20 25 mph 1016.3mb 79f 80f
1:20  -   -   -  20 27 mph 1016.5mb 79f 80f
1:10  -   -   -  22 27 mph 1016.5mb 79f 80f
1:00  -   -   -  22 29 mph 1016.5mb 79f 80f
12:50 5ft 6s 5s 22 27 mph 1016.5mb 79f 80f
12:40 5ft  -  5s 22 27 mph 1016.5mb 79f 79f
12:30  -   -   -  20 25 mph 1016.6mb 79f 79f
12:20  -   -   -  20 27 mph 1016.6mb 79f 80f
12:10  -   -   -  20 27 mph 1016.8mb 79f 80f
12:00  -   -   -  20 25 mph 1017mb 79f 80f
Fr 06/23 11:50 4.5ft 6s 5s 20 27 mph 1016.9mb 79f 80f
11:40 4.5ft  -  5s 20 25 mph 1017mb 79f 80f
11:30  -   -   -  20 25 mph 1017mb 79f 80f
11:20  -   -   -  20 25 mph 1017.1mb 79f 80f
11:10  -   -   -  18 25 mph 1017.1mb 79f 80f
11:00  -   -   -  18 22 mph 1017mb 79f 80f
10:50 4.5ft 5s 5s 18 25 mph 1017mb 79f 80f
10:40  -   -   -  18 22 mph 1017mb 79f 80f
10:30  -   -   -  18 22 mph 1017mb 79f 80f
10:20  -   -   -  18 22 mph 1017mb 79f 80f
10:10  -   -   -  18 22 mph 1016.9mb 79f 80f
10:00  -   -   -  18 22 mph 1016.9mb 79f 80f
9:50 4.5ft 5s 5s 18 22 mph 1016.8mb 79f 80f
9:40 4.5ft  -  5s 18 22 mph 1016.9mb 79f 80f
9:30  -   -   -  18 25 mph 1016.5mb 79f 80f
9:20  -   -   -  18 22 mph 1016.5mb 79f 80f
9:10  -   -   -  18 22 mph 1016.5mb 79f 80f
9:00  -   -   -  18 22 mph 1016.5mb 79f 80f
8:50 4.5ft 5s 5s 18 22 mph 1016.5mb 79f 80f
8:40  -   -   -  18 22 mph 1016.5mb 79f 80f
8:30  -   -   -  18 22 mph 1016.5mb 79f 80f
8:20  -   -   -  18 22 mph 1016.5mb 79f 80f
8:10  -   -   -  18 22 mph 1016.6mb 79f 80f
8:00  -   -   -  20 25 mph 1016.5mb 79f 80f
7:50 4ft 5s 5s 18 22 mph 1016.5mb 79f 80f
7:40  -   -   -  18 20 mph 1016.6mb 79f 80f
7:30  -   -   -  16 20 mph 1016.5mb 79f 80f
7:20  -   -   -  18 22 mph 1016.5mb 79f 80f
7:10  -   -   -  16 20 mph 1016.5mb 79f 80f
7:00  -   -   -  16 20 mph 1016.5mb 79f 80f
6:50 4.5ft 9s 5s 16 20 mph 1016.5mb 79f 80f
6:40 4.5ft  -  5s 16 20 mph 1016.5mb 79f 80f
6:30  -   -   -  13 18 mph 1016.5mb - 80f
6:20  -   -   -  13 18 mph 1016.5mb 79f 80f
6:10  -   -   -  13 18 mph 1016.4mb 79f 80f
6:00  -   -   -  16 18 mph 1016.5mb 79f 80f
5:50 4ft 9s 5s 16 20 mph 1016.4mb 79f 80f
5:40 4ft  -  5s 16 20 mph 1016.4mb 79f 80f
5:30  -   -   -  16 20 mph 1016.4mb 79f 80f
5:20  -   -   -  16 20 mph 1016.4mb 79f 80f
5:10  -   -   -  16 20 mph 1016.5mb 79f 80f
5:00  -   -   -  16 20 mph 1016.5mb 79f 80f
4:50 3.5ft 8s 5s 16 18 mph 1016.5mb 79f 80f
4:40  -   -   -  16 18 mph 1016.6mb 79f 80f
4:30  -   -   -  16 18 mph 1016.8mb 79f 80f
4:20  -   -   -  16 18 mph 1016.8mb 79f 80f
4:10  -   -   -  16 18 mph 1017mb 79f 80f
4:00  -   -   -  13 18 mph 1017mb 79f 80f
3:50 4ft 8s 6s 13 16 mph 1017.1mb 79f 80f
3:40  -   -   -  13 18 mph 1017mb - 80f
3:30  -   -   -  13 16 mph 1017.3mb 79f 80f
3:20  -   -   -  11 16 mph 1017.4mb 79f 80f
3:10  -   -   -  11 20 mph 1017.4mb 79f 79f
3:00  -   -   -  9 13 mph 1017.4mb 79f 80f
2:50 3.5ft 9s 6s 4 7 mph 1017.5mb 79f 79f
2:40  -   -   -  4 9 mph 1017.5mb 79f 79f
2:30  -   -   -  2 7 mph 1017.6mb 79f 78f
2:20  -   -   -  2 7 mph 1017.8mb 79f 78f
2:10  -   -   -  2 4 mph 1018mb 79f 78f
2:00  -   -   -  2 7 mph 1018.1mb 79f 78f
1:50 3.5ft 8s 6s 2 7 mph 1018.1mb 79f 78f
1:40  -   -   -  4 11 mph 1018.4mb 79f 78f
1:30  -   -   -  7 7 mph 1018.4mb 79f 78f
1:20  -   -   -  7 9 mph 1018.4mb 79f 78f
1:10  -   -   -  7 9 mph 1018.4mb 79f 78f
1:00  -   -   -  9 11 mph 1018.5mb 79f 78f
12:50 4ft 9s 6s 7 9 mph 1018.5mb 79f 78f
12:40  -   -   -  7 9 mph 1018.5mb 79f 78f
12:30  -   -   -  9 11 mph 1018.5mb 79f 78f
12:20  -   -   -  7 9 mph 1018.5mb 79f 78f
12:10  -   -   -  9 11 mph 1018.4mb 79f 78f
12:00  -   -   -  7 11 mph 1018.4mb 79f 78f
11:50 4ft 9s 5s 7 9 mph 1018.4mb 79f 78f
11:40  -   -   -  7 11 mph 1018.1mb - 78f
11:30  -   -   -  7 9 mph 1018.1mb 80f 78f
11:20  -   -   -  7 9 mph 1018.3mb 79f 78f
11:10  -   -   -  4 7 mph 1018.4mb 79f 78f
11:00  -   -   -  4 7 mph 1018.4mb 79f 78f
10:50 4.5ft 8s 5s 4 4 mph 1018.4mb 79f 78f
10:40 4.5ft  -  5s 2 4 mph 1018.3mb 79f 78f
10:30  -   -   -  2 4 mph 1018.1mb 79f 78f
10:20  -   -   -  2 4 mph 1018.1mb 79f 78f
10:10  -   -   -   -  2 mph 1018.1mb 79f 78f
10:00  -   -   -  2 4 mph 1018.1mb 79f 78f
9:50 4.5ft 8s 5s 4 7 mph 1018.1mb 79f 78f
9:40 4.5ft  -  5s 4 7 mph 1018mb 79f 78f
9:30  -   -   -  4 7 mph 1018.1mb 79f 77f
9:20  -   -   -  4 7 mph 1018.1mb 79f 77f
9:10  -   -   -  7 9 mph 1018.1mb 79f 77f
9:00  -   -   -  7 9 mph 1018.1mb 79f 77f
8:50 4ft 8s 5s 9 13 mph 1018.3mb 79f 76f
8:40 4ft  -  5s 9 11 mph 1018.3mb 79f 76f
8:30  -   -   -  9 13 mph 1018.3mb 79f 76f
8:20  -   -   -  11 16 mph 1018.1mb 79f 76f
8:10  -   -   -  13 18 mph 1018.1mb 79f 76f
8:00  -   -   -  13 18 mph 1018mb 79f 76f
7:50 4.5ft 9s 5s 16 20 mph 1018.1mb 79f 75f
7:40 4.5ft  -  5s 18 22 mph 1018.1mb 79f 75f
7:30  -   -   -  20 27 mph 1018.1mb 79f 76f
7:20  -   -   -  18 27 mph 1018.1mb 79f 77f
7:10  -   -   -  13 16 mph 1017.9mb 79f 79f
7:00  -   -   -  11 16 mph 1017.8mb 79f 79f
6:50 4ft 9s 5s 13 16 mph 1017.6mb 79f 79f
6:40  -   -   -  13 16 mph 1017.4mb 79f 79f
6:30  -   -   -  13 16 mph 1017.4mb 79f 79f
6:20  -   -   -  13 18 mph 1017.3mb 79f 79f
6:10  -   -   -  13 16 mph 1017mb 79f 79f
6:00  -   -   -  13 18 mph 1017mb 79f 79f
5:50 4.5ft 9s 5s 16 18 mph 1017mb 79f 79f
5:40 4.5ft  -  5s 16 18 mph 1017mb 79f 79f
5:30  -   -   -  16 20 mph 1017mb 79f 79f
5:20  -   -   -  16 20 mph 1017mb 79f 79f
5:10  -   -   -  18 20 mph 1017mb 79f 79f
5:00  -   -   -  16 20 mph 1017mb 79f 79f
4:50 4.5ft 8s 5s 18 22 mph 1016.9mb 79f 78f
4:40  -   -   -  18 22 mph 1016.9mb 79f 79f
4:30  -   -   -  18 22 mph 1017mb 79f 79f
4:20  -   -   -  16 22 mph 1017mb 79f 79f
4:10  -   -   -  18 22 mph 1017mb 79f 79f
4:00  -   -   -  16 20 mph 1017.1mb 79f 79f
3:50 4ft 9s 5s 16 18 mph 1017.3mb 79f 79f
3:40 4ft  -  5s 13 18 mph 1017.5mb 79f 79f
3:30  -   -   -  16 18 mph 1017.6mb 79f 79f
3:20  -   -   -  13 18 mph 1017.6mb 79f 79f
3:10  -   -   -  13 16 mph 1017.5mb 79f 79f
3:00  -   -   -  13 18 mph 1017.5mb 79f 79f
2:50 4.5ft 7s 6s 13 16 mph 1017.5mb 79f 79f
2:40  -   -   -  13 16 mph 1017.5mb 79f 79f
2:30  -   -   -  13 16 mph 1017.6mb 79f 79f
2:20  -   -   -  13 16 mph 1017.6mb 79f 79f
2:10  -   -   -  11 16 mph 1017.8mb 79f 79f
2:00  -   -   -  11 13 mph 1017.9mb 79f 79f
1:50 4.5ft 8s 6s 11 16 mph 1018mb 79f 79f
1:40  -   -   -  11 13 mph 1018mb 79f 79f
1:30  -   -   -  11 16 mph 1018mb 79f 79f
1:20  -   -   -  11 13 mph 1018.1mb 79f 79f
1:10  -   -   -  11 13 mph 1018.3mb 79f 79f
1:00  -   -   -  11 16 mph 1018.4mb 79f 79f
12:50 4.5ft 8s 6s 11 16 mph 1018.5mb 79f 79f
12:40 4.5ft  -  6s 13 16 mph 1018.5mb 79f 79f
12:30  -   -   -  13 16 mph 1018.6mb 79f 79f
12:20  -   -   -  13 16 mph 1018.6mb 79f 79f
12:10  -   -   -  13 16 mph 1018.8mb 79f 79f
12:00  -   -   -  13 16 mph 1018.8mb 79f 79f
Do 06/22 11:50 4.5ft 7s 6s 13 16 mph 1018.8mb 79f 79f
11:40  -   -   -  13 16 mph 1019mb 79f 79f
11:30  -   -   -  11 13 mph 1019mb 79f 79f
11:20  -   -   -  11 13 mph 1019mb 79f 79f
11:10  -   -   -  11 16 mph 1019mb 79f 79f
11:00  -   -   -  11 13 mph 1019mb 79f 79f
10:50 4.5ft 9s 6s 11 16 mph 1018.9mb 79f 79f
10:40 4.5ft  -  6s 11 16 mph 1018.9mb 79f 79f
10:30  -   -   -  11 13 mph 1018.9mb 79f 79f
10:20  -   -   -  11 13 mph 1018.9mb 79f 79f
10:10  -   -   -  11 13 mph 1018.9mb 79f 79f
10:00  -   -   -  11 13 mph 1018.8mb 79f 79f
9:50 4.5ft 7s 6s 11 13 mph 1018.9mb 79f 79f
9:40 4.5ft  -  6s 11 13 mph 1018.9mb 79f 79f
9:30  -   -   -  11 13 mph 1018.8mb 79f 79f
9:20  -   -   -  11 13 mph 1018.6mb 79f 79f
9:10  -   -   -  11 13 mph 1018.6mb 79f 79f
9:00  -   -   -  11 13 mph 1018.5mb - 79f
8:50 4.5ft 8s 6s 11 13 mph 1018.5mb 79f 79f
8:40 4.5ft  -  6s 9 13 mph 1018.4mb 79f 79f
8:30  -   -   -  9 13 mph 1018.5mb 79f 79f
8:20  -   -   -  9 11 mph 1018.5mb 79f 79f
8:10  -   -   -  11 13 mph 1018.5mb 79f 79f
8:00  -   -   -  11 13 mph 1018.5mb 79f 79f
7:50 4.5ft 8s 6s 11 13 mph 1018.6mb 79f 79f
7:40  -   -   -  11 13 mph 1018.5mb 79f 79f
7:30  -   -   -  11 13 mph 1018.5mb 79f 79f
7:20  -   -   -  11 13 mph 1018.5mb 79f 79f
7:10  -   -   -  11 13 mph 1018.5mb 79f 79f
7:00  -   -   -  11 16 mph 1018.5mb 79f 79f
6:50 4.5ft 8s 6s 11 13 mph 1018.5mb 79f 79f
6:40 4.5ft  -  6s 11 13 mph 1018.3mb - 79f
6:30  -   -   -  11 13 mph 1018.1mb 79f 79f
6:20  -   -   -  11 13 mph 1018mb 79f 79f
6:10  -   -   -  11 13 mph 1018mb 79f 79f
6:00  -   -   -  13 16 mph 1018.3mb 79f 79f
5:50 5ft 8s 6s 13 16 mph 1018.4mb 79f 79f
5:40 5ft  -  6s 13 16 mph 1018.5mb 79f 79f
5:30  -   -   -  13 18 mph 1018.5mb 79f 79f
5:20  -   -   -  13 16 mph 1018.5mb 79f 79f
5:10  -   -   -  11 13 mph 1018.5mb 79f 79f
5:00  -   -   -  11 13 mph 1018.5mb 79f 79f
4:50 4.5ft 6s 5s 11 16 mph 1018.5mb 79f 80f
4:40 4.5ft  -  5s 11 13 mph 1018.5mb 79f 79f
4:30  -   -   -  11 13 mph 1018.6mb 79f 79f
4:20  -   -   -  11 13 mph 1018.8mb 79f 80f
4:10  -   -   -  11 13 mph 1018.6mb 79f 80f
4:00  -   -   -  11 13 mph 1018.9mb 79f 80f
3:50 4.5ft 8s 5s 11 13 mph 1018.9mb 79f 80f
3:40  -   -   -  11 13 mph 1019mb 79f 79f
3:30  -   -   -  11 13 mph 1019mb 79f 79f
3:20  -   -   -  13 16 mph 1019mb 79f 79f
3:10  -   -   -  11 16 mph 1019.1mb 79f 79f
3:00  -   -   -  13 16 mph 1019.3mb - 79f
2:50 4.5ft 9s 6s 13 16 mph 1019.3mb 79f 79f
2:40 4.5ft  -  6s 13 18 mph 1019.3mb 79f 79f
2:30  -   -   -  13 16 mph 1019.3mb 79f 79f
2:20  -   -   -  11 16 mph 1019.4mb 79f 79f
2:10  -   -   -  11 13 mph 1019.4mb 79f 79f
2:00  -   -   -  11 13 mph 1019.4mb 79f 79f
1:50 5ft 8s 6s 11 13 mph 1019.4mb 79f 79f
1:40 5ft  -  6s 11 16 mph 1019.5mb 79f 79f
1:30  -   -   -  11 16 mph 1019.5mb 79f 79f
1:20  -   -   -  11 13 mph 1019.6mb 79f 79f
1:10  -   -   -  11 13 mph 1019.6mb 79f 79f
1:00  -   -   -  9 11 mph 1019.8mb 79f 79f
12:50 5ft 8s 6s 11 13 mph 1019.8mb 79f 79f
12:40  -   -   -  11 13 mph 1019.8mb 79f 79f
12:30  -   -   -  11 13 mph 1019.9mb 79f 78f
12:20  -   -   -  11 13 mph 1020mb 79f 78f
12:10  -   -   -  9 13 mph 1020mb 79f 78f
12:00  -   -   -  9 11 mph 1020mb 79f 78f
11:50 5ft 6s 5s 9 11 mph 1020mb 79f 78f
11:40 5ft  -  5s 9 11 mph 1019.9mb 79f 78f
11:30  -   -   -  11 13 mph 1019.9mb 79f 78f
11:20  -   -   -  11 13 mph 1020mb 79f 78f
11:10  -   -   -  9 11 mph 1019.9mb 79f 78f
11:00  -   -   -  11 16 mph 1019.9mb 79f 78f
10:50 4.5ft 8s 6s 11 16 mph 1020mb 79f 78f
10:40 4.5ft  -  6s 13 16 mph 1020mb 79f 79f
10:30  -   -   -  11 16 mph 1020mb 79f 79f
10:20  -   -   -  11 13 mph 1020mb 79f 79f
10:10  -   -   -  11 13 mph 1020mb 79f 79f
10:00  -   -   -  11 13 mph 1020mb 79f 79f
9:50 4.5ft 6s 5s 11 13 mph 1020mb 79f 79f
9:40  -   -   -  11 16 mph 1020mb 79f 79f
9:30  -   -   -  11 13 mph 1020mb 79f 79f
9:20  -   -   -  11 13 mph 1020mb 79f 79f
9:10  -   -   -  11 13 mph 1020mb 79f 79f
9:00  -   -   -  11 16 mph 1020mb 78f 79f
8:50 4.5ft  -  5s 11 13 mph 1020mb 79f 79f
8:40 4.5ft 9s 5s  -  mph - - -
8:30  -   -   -  11 16 mph 1020mb 78f 79f
8:20  -   -   -  11 16 mph 1020mb 78f 79f
8:10  -   -   -  13 18 mph 1020mb 78f 79f
8:00  -   -   -  13 16 mph 1020mb 78f 79f
7:50 5ft 6s 5s 13 18 mph 1019.9mb 78f 79f
7:40 5ft  -  5s 13 18 mph 1019.8mb 78f 79f
7:30  -   -   -  13 16 mph 1019.6mb 78f 79f
7:20  -   -   -  13 16 mph 1019.5mb 78f 79f
7:10  -   -   -  13 18 mph 1019.4mb 78f 79f
7:00  -   -   -  13 18 mph 1019.3mb 78f 79f
6:50 4.5ft 6s 5s 16 18 mph 1019.3mb 78f 79f
6:40 4.5ft  -  5s 16 20 mph 1019.1mb 78f 79f
6:30  -   -   -  16 18 mph 1019.1mb 78f 79f
6:20  -   -   -  16 18 mph 1019.3mb 78f 79f
6:10  -   -   -  16 20 mph 1019.1mb 78f 79f
6:00  -   -   -  16 18 mph 1019.3mb 78f 79f
5:50 4.5ft 5s 5s 16 20 mph 1019.3mb 78f 79f
5:40  -   -   -  16 20 mph 1019.4mb 78f 79f
5:30  -   -   -  16 20 mph 1019.3mb 78f 79f